<?xml version="1.0" encoding="UTF-8" standalone="no" ?>
<gpx xmlns="http://www.topografix.com/GPX/1/1" xmlns:xsi="http://www.w3.org/2001/XMLSchema-instance" xsi:schemaLocation="http://www.topografix.com/GPX/1/1 http://www.topografix.com/GPX/1/1/gpx.xsd" version="1.1" creator="VisuGPX - https://www.visugpx.com">
  <metadata>
    <name>Sortie Moto</name>
  </metadata>
  <trk>
    <name><![CDATA[Journal actif: 2020-04-04 16:30]]></name>
    <trkseg>
      <trkpt lat="46.06767" lon="6.30791">
        <ele>558.66</ele>
        <time>2020-04-04T14:30:35Z</time>
      </trkpt>
      <trkpt lat="46.0677" lon="6.30789">
        <ele>559.14</ele>
        <time>2020-04-04T14:30:36Z</time>
      </trkpt>
      <trkpt lat="46.06773" lon="6.30786">
        <ele>559.62</ele>
        <time>2020-04-04T14:30:37Z</time>
      </trkpt>
      <trkpt lat="46.06778" lon="6.30782">
        <ele>560.11</ele>
        <time>2020-04-04T14:30:38Z</time>
      </trkpt>
      <trkpt lat="46.06782" lon="6.30779">
        <ele>560.59</ele>
        <time>2020-04-04T14:30:39Z</time>
      </trkpt>
      <trkpt lat="46.06788" lon="6.30775">
        <ele>561.07</ele>
        <time>2020-04-04T14:30:40Z</time>
      </trkpt>
      <trkpt lat="46.06799" lon="6.30765">
        <ele>562.03</ele>
        <time>2020-04-04T14:30:43Z</time>
      </trkpt>
      <trkpt lat="46.06797" lon="6.30756">
        <ele>562.03</ele>
        <time>2020-04-04T14:30:44Z</time>
      </trkpt>
      <trkpt lat="46.06797" lon="6.30755">
        <ele>562.51</ele>
        <time>2020-04-04T14:30:45Z</time>
      </trkpt>
      <trkpt lat="46.06795" lon="6.30744">
        <ele>563.47</ele>
        <time>2020-04-04T14:30:47Z</time>
      </trkpt>
      <trkpt lat="46.06793" lon="6.30734">
        <ele>563.47</ele>
        <time>2020-04-04T14:30:48Z</time>
      </trkpt>
      <trkpt lat="46.0679" lon="6.30722">
        <ele>563.47</ele>
        <time>2020-04-04T14:30:49Z</time>
      </trkpt>
      <trkpt lat="46.06786" lon="6.30705">
        <ele>563.95</ele>
        <time>2020-04-04T14:30:50Z</time>
      </trkpt>
      <trkpt lat="46.06786" lon="6.30693">
        <ele>563.95</ele>
        <time>2020-04-04T14:30:51Z</time>
      </trkpt>
      <trkpt lat="46.06785" lon="6.30678">
        <ele>563.95</ele>
        <time>2020-04-04T14:30:52Z</time>
      </trkpt>
      <trkpt lat="46.06784" lon="6.30663">
        <ele>563.95</ele>
        <time>2020-04-04T14:30:53Z</time>
      </trkpt>
      <trkpt lat="46.06784" lon="6.3065">
        <ele>563.95</ele>
        <time>2020-04-04T14:30:54Z</time>
      </trkpt>
      <trkpt lat="46.06786" lon="6.30594">
        <ele>564.43</ele>
        <time>2020-04-04T14:30:58Z</time>
      </trkpt>
      <trkpt lat="46.0679" lon="6.30578">
        <ele>564.43</ele>
        <time>2020-04-04T14:30:59Z</time>
      </trkpt>
      <trkpt lat="46.06798" lon="6.30552">
        <ele>566.35</ele>
        <time>2020-04-04T14:31:01Z</time>
      </trkpt>
      <trkpt lat="46.06807" lon="6.30529">
        <ele>566.83</ele>
        <time>2020-04-04T14:31:03Z</time>
      </trkpt>
      <trkpt lat="46.0681" lon="6.30519">
        <ele>567.32</ele>
        <time>2020-04-04T14:31:04Z</time>
      </trkpt>
      <trkpt lat="46.06816" lon="6.30502">
        <ele>568.28</ele>
        <time>2020-04-04T14:31:06Z</time>
      </trkpt>
      <trkpt lat="46.06819" lon="6.30495">
        <ele>568.76</ele>
        <time>2020-04-04T14:31:07Z</time>
      </trkpt>
      <trkpt lat="46.06827" lon="6.30471">
        <ele>570.68</ele>
        <time>2020-04-04T14:31:10Z</time>
      </trkpt>
      <trkpt lat="46.06832" lon="6.30456">
        <ele>571.16</ele>
        <time>2020-04-04T14:31:12Z</time>
      </trkpt>
      <trkpt lat="46.06835" lon="6.30447">
        <ele>571.64</ele>
        <time>2020-04-04T14:31:13Z</time>
      </trkpt>
      <trkpt lat="46.06858" lon="6.30368">
        <ele>574.04</ele>
        <time>2020-04-04T14:31:19Z</time>
      </trkpt>
      <trkpt lat="46.06858" lon="6.30354">
        <ele>574.53</ele>
        <time>2020-04-04T14:31:20Z</time>
      </trkpt>
      <trkpt lat="46.06859" lon="6.30339">
        <ele>575.49</ele>
        <time>2020-04-04T14:31:21Z</time>
      </trkpt>
      <trkpt lat="46.06859" lon="6.30324">
        <ele>575.49</ele>
        <time>2020-04-04T14:31:22Z</time>
      </trkpt>
      <trkpt lat="46.0686" lon="6.3031">
        <ele>575.97</ele>
        <time>2020-04-04T14:31:23Z</time>
      </trkpt>
      <trkpt lat="46.06863" lon="6.30251">
        <ele>578.37</ele>
        <time>2020-04-04T14:31:28Z</time>
      </trkpt>
      <trkpt lat="46.06866" lon="6.30242">
        <ele>578.85</ele>
        <time>2020-04-04T14:31:29Z</time>
      </trkpt>
      <trkpt lat="46.06885" lon="6.30233">
        <ele>579.81</ele>
        <time>2020-04-04T14:31:31Z</time>
      </trkpt>
      <trkpt lat="46.06893" lon="6.30229">
        <ele>580.29</ele>
        <time>2020-04-04T14:31:32Z</time>
      </trkpt>
      <trkpt lat="46.06947" lon="6.30198">
        <ele>583.18</ele>
        <time>2020-04-04T14:31:37Z</time>
      </trkpt>
      <trkpt lat="46.06971" lon="6.30177">
        <ele>582.7</ele>
        <time>2020-04-04T14:31:39Z</time>
      </trkpt>
      <trkpt lat="46.06982" lon="6.30166">
        <ele>582.7</ele>
        <time>2020-04-04T14:31:40Z</time>
      </trkpt>
      <trkpt lat="46.07046" lon="6.30074">
        <ele>584.14</ele>
        <time>2020-04-04T14:31:47Z</time>
      </trkpt>
      <trkpt lat="46.07052" lon="6.30066">
        <ele>585.1</ele>
        <time>2020-04-04T14:31:48Z</time>
      </trkpt>
      <trkpt lat="46.07057" lon="6.3006">
        <ele>585.58</ele>
        <time>2020-04-04T14:31:49Z</time>
      </trkpt>
      <trkpt lat="46.07063" lon="6.30055">
        <ele>586.06</ele>
        <time>2020-04-04T14:31:50Z</time>
      </trkpt>
      <trkpt lat="46.07078" lon="6.30057">
        <ele>586.54</ele>
        <time>2020-04-04T14:31:51Z</time>
      </trkpt>
      <trkpt lat="46.07078" lon="6.30057">
        <ele>586.54</ele>
        <time>2020-04-04T14:31:52Z</time>
      </trkpt>
      <trkpt lat="46.07087" lon="6.30059">
        <ele>587.02</ele>
        <time>2020-04-04T14:31:53Z</time>
      </trkpt>
      <trkpt lat="46.07093" lon="6.30053">
        <ele>587.5</ele>
        <time>2020-04-04T14:31:54Z</time>
      </trkpt>
      <trkpt lat="46.07101" lon="6.30038">
        <ele>587.5</ele>
        <time>2020-04-04T14:31:55Z</time>
      </trkpt>
      <trkpt lat="46.07111" lon="6.30029">
        <ele>587.5</ele>
        <time>2020-04-04T14:31:56Z</time>
      </trkpt>
      <trkpt lat="46.07122" lon="6.3002">
        <ele>587.98</ele>
        <time>2020-04-04T14:31:57Z</time>
      </trkpt>
      <trkpt lat="46.07134" lon="6.3001">
        <ele>587.98</ele>
        <time>2020-04-04T14:31:58Z</time>
      </trkpt>
      <trkpt lat="46.07146" lon="6.3">
        <ele>588.46</ele>
        <time>2020-04-04T14:31:59Z</time>
      </trkpt>
      <trkpt lat="46.07257" lon="6.29909">
        <ele>589.91</ele>
        <time>2020-04-04T14:32:08Z</time>
      </trkpt>
      <trkpt lat="46.07326" lon="6.29855">
        <ele>592.31</ele>
        <time>2020-04-04T14:32:16Z</time>
      </trkpt>
      <trkpt lat="46.07395" lon="6.29805">
        <ele>593.75</ele>
        <time>2020-04-04T14:32:23Z</time>
      </trkpt>
      <trkpt lat="46.07496" lon="6.29744">
        <ele>594.23</ele>
        <time>2020-04-04T14:32:29Z</time>
      </trkpt>
      <trkpt lat="46.07511" lon="6.29737">
        <ele>594.23</ele>
        <time>2020-04-04T14:32:30Z</time>
      </trkpt>
      <trkpt lat="46.07539" lon="6.29737">
        <ele>594.71</ele>
        <time>2020-04-04T14:32:32Z</time>
      </trkpt>
      <trkpt lat="46.07553" lon="6.29737">
        <ele>595.19</ele>
        <time>2020-04-04T14:32:33Z</time>
      </trkpt>
      <trkpt lat="46.07576" lon="6.29742">
        <ele>596.15</ele>
        <time>2020-04-04T14:32:35Z</time>
      </trkpt>
      <trkpt lat="46.0761" lon="6.29757">
        <ele>595.19</ele>
        <time>2020-04-04T14:32:39Z</time>
      </trkpt>
      <trkpt lat="46.07617" lon="6.29759">
        <ele>593.27</ele>
        <time>2020-04-04T14:32:41Z</time>
      </trkpt>
      <trkpt lat="46.07638" lon="6.29705">
        <ele>592.79</ele>
        <time>2020-04-04T14:32:43Z</time>
      </trkpt>
      <trkpt lat="46.0764" lon="6.29703">
        <ele>593.27</ele>
        <time>2020-04-04T14:32:44Z</time>
      </trkpt>
      <trkpt lat="46.07652" lon="6.29692">
        <ele>593.27</ele>
        <time>2020-04-04T14:32:45Z</time>
      </trkpt>
      <trkpt lat="46.07696" lon="6.29691">
        <ele>592.31</ele>
        <time>2020-04-04T14:32:48Z</time>
      </trkpt>
      <trkpt lat="46.07723" lon="6.29691">
        <ele>591.35</ele>
        <time>2020-04-04T14:32:52Z</time>
      </trkpt>
      <trkpt lat="46.07729" lon="6.29697">
        <ele>590.39</ele>
        <time>2020-04-04T14:32:55Z</time>
      </trkpt>
      <trkpt lat="46.07753" lon="6.29761">
        <ele>588.46</ele>
        <time>2020-04-04T14:32:59Z</time>
      </trkpt>
      <trkpt lat="46.07791" lon="6.2989">
        <ele>583.66</ele>
        <time>2020-04-04T14:33:03Z</time>
      </trkpt>
      <trkpt lat="46.07794" lon="6.29922">
        <ele>582.22</ele>
        <time>2020-04-04T14:33:04Z</time>
      </trkpt>
      <trkpt lat="46.07796" lon="6.29952">
        <ele>580.77</ele>
        <time>2020-04-04T14:33:05Z</time>
      </trkpt>
      <trkpt lat="46.07798" lon="6.2998">
        <ele>579.33</ele>
        <time>2020-04-04T14:33:06Z</time>
      </trkpt>
      <trkpt lat="46.07798" lon="6.30009">
        <ele>577.89</ele>
        <time>2020-04-04T14:33:07Z</time>
      </trkpt>
      <trkpt lat="46.07795" lon="6.30037">
        <ele>576.45</ele>
        <time>2020-04-04T14:33:08Z</time>
      </trkpt>
      <trkpt lat="46.07793" lon="6.30064">
        <ele>575.01</ele>
        <time>2020-04-04T14:33:09Z</time>
      </trkpt>
      <trkpt lat="46.07787" lon="6.30092">
        <ele>573.56</ele>
        <time>2020-04-04T14:33:10Z</time>
      </trkpt>
      <trkpt lat="46.07781" lon="6.30119">
        <ele>572.12</ele>
        <time>2020-04-04T14:33:11Z</time>
      </trkpt>
      <trkpt lat="46.07773" lon="6.30146">
        <ele>571.16</ele>
        <time>2020-04-04T14:33:12Z</time>
      </trkpt>
      <trkpt lat="46.07764" lon="6.30171">
        <ele>569.24</ele>
        <time>2020-04-04T14:33:13Z</time>
      </trkpt>
      <trkpt lat="46.07752" lon="6.30196">
        <ele>567.8</ele>
        <time>2020-04-04T14:33:14Z</time>
      </trkpt>
      <trkpt lat="46.07739" lon="6.3022">
        <ele>566.35</ele>
        <time>2020-04-04T14:33:15Z</time>
      </trkpt>
      <trkpt lat="46.07727" lon="6.30244">
        <ele>564.91</ele>
        <time>2020-04-04T14:33:16Z</time>
      </trkpt>
      <trkpt lat="46.07643" lon="6.3039">
        <ele>554.82</ele>
        <time>2020-04-04T14:33:24Z</time>
      </trkpt>
      <trkpt lat="46.07636" lon="6.30402">
        <ele>553.86</ele>
        <time>2020-04-04T14:33:25Z</time>
      </trkpt>
      <trkpt lat="46.0763" lon="6.30413">
        <ele>552.9</ele>
        <time>2020-04-04T14:33:26Z</time>
      </trkpt>
      <trkpt lat="46.07619" lon="6.30419">
        <ele>552.9</ele>
        <time>2020-04-04T14:33:27Z</time>
      </trkpt>
      <trkpt lat="46.07612" lon="6.30419">
        <ele>552.41</ele>
        <time>2020-04-04T14:33:28Z</time>
      </trkpt>
      <trkpt lat="46.07605" lon="6.30421">
        <ele>550.97</ele>
        <time>2020-04-04T14:33:29Z</time>
      </trkpt>
      <trkpt lat="46.076" lon="6.30429">
        <ele>550.01</ele>
        <time>2020-04-04T14:33:30Z</time>
      </trkpt>
      <trkpt lat="46.07602" lon="6.30443">
        <ele>549.05</ele>
        <time>2020-04-04T14:33:31Z</time>
      </trkpt>
      <trkpt lat="46.076" lon="6.30461">
        <ele>548.57</ele>
        <time>2020-04-04T14:33:32Z</time>
      </trkpt>
      <trkpt lat="46.07593" lon="6.30474">
        <ele>547.61</ele>
        <time>2020-04-04T14:33:33Z</time>
      </trkpt>
      <trkpt lat="46.07584" lon="6.30492">
        <ele>546.65</ele>
        <time>2020-04-04T14:33:34Z</time>
      </trkpt>
      <trkpt lat="46.07532" lon="6.30622">
        <ele>541.84</ele>
        <time>2020-04-04T14:33:39Z</time>
      </trkpt>
      <trkpt lat="46.07486" lon="6.30815">
        <ele>537.03</ele>
        <time>2020-04-04T14:33:46Z</time>
      </trkpt>
      <trkpt lat="46.07469" lon="6.31051">
        <ele>527.9</ele>
        <time>2020-04-04T14:33:53Z</time>
      </trkpt>
      <trkpt lat="46.07448" lon="6.31235">
        <ele>518.77</ele>
        <time>2020-04-04T14:34:00Z</time>
      </trkpt>
      <trkpt lat="46.07423" lon="6.31307">
        <ele>515.4</ele>
        <time>2020-04-04T14:34:05Z</time>
      </trkpt>
      <trkpt lat="46.07414" lon="6.31329">
        <ele>514.44</ele>
        <time>2020-04-04T14:34:07Z</time>
      </trkpt>
      <trkpt lat="46.07405" lon="6.31337">
        <ele>514.44</ele>
        <time>2020-04-04T14:34:08Z</time>
      </trkpt>
      <trkpt lat="46.07398" lon="6.31348">
        <ele>514.44</ele>
        <time>2020-04-04T14:34:09Z</time>
      </trkpt>
      <trkpt lat="46.07394" lon="6.31362">
        <ele>514.44</ele>
        <time>2020-04-04T14:34:10Z</time>
      </trkpt>
      <trkpt lat="46.07397" lon="6.31379">
        <ele>514.44</ele>
        <time>2020-04-04T14:34:11Z</time>
      </trkpt>
      <trkpt lat="46.074" lon="6.31394">
        <ele>513.96</ele>
        <time>2020-04-04T14:34:12Z</time>
      </trkpt>
      <trkpt lat="46.07394" lon="6.31411">
        <ele>513.96</ele>
        <time>2020-04-04T14:34:13Z</time>
      </trkpt>
      <trkpt lat="46.07389" lon="6.31425">
        <ele>513.96</ele>
        <time>2020-04-04T14:34:14Z</time>
      </trkpt>
      <trkpt lat="46.07374" lon="6.31459">
        <ele>513.48</ele>
        <time>2020-04-04T14:34:16Z</time>
      </trkpt>
      <trkpt lat="46.07281" lon="6.31575">
        <ele>511.08</ele>
        <time>2020-04-04T14:34:23Z</time>
      </trkpt>
      <trkpt lat="46.07136" lon="6.31797">
        <ele>509.64</ele>
        <time>2020-04-04T14:34:34Z</time>
      </trkpt>
      <trkpt lat="46.07055" lon="6.31987">
        <ele>508.67</ele>
        <time>2020-04-04T14:34:42Z</time>
      </trkpt>
      <trkpt lat="46.07025" lon="6.32059">
        <ele>507.71</ele>
        <time>2020-04-04T14:34:46Z</time>
      </trkpt>
      <trkpt lat="46.07019" lon="6.32069">
        <ele>507.71</ele>
        <time>2020-04-04T14:34:47Z</time>
      </trkpt>
      <trkpt lat="46.07012" lon="6.32078">
        <ele>507.71</ele>
        <time>2020-04-04T14:34:48Z</time>
      </trkpt>
      <trkpt lat="46.07006" lon="6.32085">
        <ele>507.71</ele>
        <time>2020-04-04T14:34:49Z</time>
      </trkpt>
      <trkpt lat="46.06999" lon="6.32094">
        <ele>507.71</ele>
        <time>2020-04-04T14:34:50Z</time>
      </trkpt>
      <trkpt lat="46.06992" lon="6.32091">
        <ele>507.71</ele>
        <time>2020-04-04T14:34:51Z</time>
      </trkpt>
      <trkpt lat="46.06985" lon="6.32089">
        <ele>507.71</ele>
        <time>2020-04-04T14:34:52Z</time>
      </trkpt>
      <trkpt lat="46.0698" lon="6.32081">
        <ele>508.19</ele>
        <time>2020-04-04T14:34:53Z</time>
      </trkpt>
      <trkpt lat="46.06976" lon="6.32071">
        <ele>508.19</ele>
        <time>2020-04-04T14:34:54Z</time>
      </trkpt>
      <trkpt lat="46.06972" lon="6.32058">
        <ele>508.67</ele>
        <time>2020-04-04T14:34:55Z</time>
      </trkpt>
      <trkpt lat="46.06953" lon="6.31988">
        <ele>513.96</ele>
        <time>2020-04-04T14:35:01Z</time>
      </trkpt>
      <trkpt lat="46.06948" lon="6.31973">
        <ele>515.4</ele>
        <time>2020-04-04T14:35:06Z</time>
      </trkpt>
      <trkpt lat="46.06966" lon="6.31958">
        <ele>515.4</ele>
        <time>2020-04-04T14:35:10Z</time>
      </trkpt>
      <trkpt lat="46.06969" lon="6.31945">
        <ele>514.92</ele>
        <time>2020-04-04T14:35:17Z</time>
      </trkpt>
      <trkpt lat="46.06969" lon="6.31945">
        <ele>535.59</ele>
        <time>2020-04-04T14:57:01Z</time>
      </trkpt>
      <trkpt lat="46.06942" lon="6.31956">
        <ele>526.94</ele>
        <time>2020-04-04T14:57:13Z</time>
      </trkpt>
      <trkpt lat="46.06941" lon="6.31952">
        <ele>525.5</ele>
        <time>2020-04-04T14:57:14Z</time>
      </trkpt>
      <trkpt lat="46.06959" lon="6.31936">
        <ele>524.06</ele>
        <time>2020-04-04T14:57:15Z</time>
      </trkpt>
      <trkpt lat="46.06941" lon="6.31953">
        <ele>520.69</ele>
        <time>2020-04-04T14:57:18Z</time>
      </trkpt>
      <trkpt lat="46.06943" lon="6.31957">
        <ele>520.21</ele>
        <time>2020-04-04T14:57:19Z</time>
      </trkpt>
      <trkpt lat="46.06947" lon="6.3197">
        <ele>517.33</ele>
        <time>2020-04-04T14:57:23Z</time>
      </trkpt>
      <trkpt lat="46.06949" lon="6.31976">
        <ele>516.37</ele>
        <time>2020-04-04T14:57:24Z</time>
      </trkpt>
      <trkpt lat="46.06952" lon="6.31985">
        <ele>515.88</ele>
        <time>2020-04-04T14:57:25Z</time>
      </trkpt>
      <trkpt lat="46.06975" lon="6.32067">
        <ele>512.52</ele>
        <time>2020-04-04T14:57:31Z</time>
      </trkpt>
      <trkpt lat="46.0698" lon="6.32082">
        <ele>512.52</ele>
        <time>2020-04-04T14:57:32Z</time>
      </trkpt>
      <trkpt lat="46.06985" lon="6.32092">
        <ele>512.04</ele>
        <time>2020-04-04T14:57:33Z</time>
      </trkpt>
      <trkpt lat="46.06997" lon="6.32107">
        <ele>511.08</ele>
        <time>2020-04-04T14:57:35Z</time>
      </trkpt>
      <trkpt lat="46.07011" lon="6.32113">
        <ele>510.6</ele>
        <time>2020-04-04T14:57:37Z</time>
      </trkpt>
      <trkpt lat="46.07016" lon="6.32115">
        <ele>510.12</ele>
        <time>2020-04-04T14:57:38Z</time>
      </trkpt>
      <trkpt lat="46.07026" lon="6.32126">
        <ele>509.64</ele>
        <time>2020-04-04T14:57:39Z</time>
      </trkpt>
      <trkpt lat="46.07026" lon="6.32146">
        <ele>509.16</ele>
        <time>2020-04-04T14:57:40Z</time>
      </trkpt>
      <trkpt lat="46.07029" lon="6.32214">
        <ele>506.75</ele>
        <time>2020-04-04T14:57:44Z</time>
      </trkpt>
      <trkpt lat="46.07081" lon="6.32432">
        <ele>501.95</ele>
        <time>2020-04-04T14:57:50Z</time>
      </trkpt>
      <trkpt lat="46.07107" lon="6.32622">
        <ele>492.81</ele>
        <time>2020-04-04T14:58:00Z</time>
      </trkpt>
      <trkpt lat="46.07114" lon="6.32734">
        <ele>488.49</ele>
        <time>2020-04-04T14:58:07Z</time>
      </trkpt>
      <trkpt lat="46.07108" lon="6.3276">
        <ele>488.01</ele>
        <time>2020-04-04T14:58:10Z</time>
      </trkpt>
      <trkpt lat="46.07112" lon="6.32775">
        <ele>487.53</ele>
        <time>2020-04-04T14:58:11Z</time>
      </trkpt>
      <trkpt lat="46.07115" lon="6.3278">
        <ele>487.05</ele>
        <time>2020-04-04T14:58:12Z</time>
      </trkpt>
      <trkpt lat="46.07123" lon="6.32813">
        <ele>486.08</ele>
        <time>2020-04-04T14:58:13Z</time>
      </trkpt>
      <trkpt lat="46.07125" lon="6.3283">
        <ele>485.12</ele>
        <time>2020-04-04T14:58:14Z</time>
      </trkpt>
      <trkpt lat="46.07143" lon="6.33116">
        <ele>475.51</ele>
        <time>2020-04-04T14:58:24Z</time>
      </trkpt>
      <trkpt lat="46.07141" lon="6.33143">
        <ele>473.59</ele>
        <time>2020-04-04T14:58:26Z</time>
      </trkpt>
      <trkpt lat="46.07136" lon="6.3317">
        <ele>472.63</ele>
        <time>2020-04-04T14:58:27Z</time>
      </trkpt>
      <trkpt lat="46.07108" lon="6.3328">
        <ele>470.7</ele>
        <time>2020-04-04T14:58:31Z</time>
      </trkpt>
      <trkpt lat="46.07087" lon="6.33335">
        <ele>470.22</ele>
        <time>2020-04-04T14:58:32Z</time>
      </trkpt>
      <trkpt lat="46.07074" lon="6.33358">
        <ele>469.74</ele>
        <time>2020-04-04T14:58:33Z</time>
      </trkpt>
      <trkpt lat="46.07061" lon="6.33378">
        <ele>469.74</ele>
        <time>2020-04-04T14:58:35Z</time>
      </trkpt>
      <trkpt lat="46.0699" lon="6.33486">
        <ele>471.18</ele>
        <time>2020-04-04T14:58:41Z</time>
      </trkpt>
      <trkpt lat="46.06978" lon="6.33504">
        <ele>471.18</ele>
        <time>2020-04-04T14:58:44Z</time>
      </trkpt>
      <trkpt lat="46.06973" lon="6.33511">
        <ele>471.18</ele>
        <time>2020-04-04T14:58:45Z</time>
      </trkpt>
      <trkpt lat="46.06969" lon="6.33517">
        <ele>471.18</ele>
        <time>2020-04-04T14:58:46Z</time>
      </trkpt>
      <trkpt lat="46.0696" lon="6.33518">
        <ele>471.18</ele>
        <time>2020-04-04T14:58:47Z</time>
      </trkpt>
      <trkpt lat="46.06954" lon="6.33515">
        <ele>471.18</ele>
        <time>2020-04-04T14:58:48Z</time>
      </trkpt>
      <trkpt lat="46.0694" lon="6.33504">
        <ele>470.7</ele>
        <time>2020-04-04T14:58:50Z</time>
      </trkpt>
      <trkpt lat="46.06928" lon="6.3349">
        <ele>470.7</ele>
        <time>2020-04-04T14:58:52Z</time>
      </trkpt>
      <trkpt lat="46.06918" lon="6.33484">
        <ele>470.7</ele>
        <time>2020-04-04T14:58:53Z</time>
      </trkpt>
      <trkpt lat="46.06835" lon="6.33485">
        <ele>471.66</ele>
        <time>2020-04-04T14:59:01Z</time>
      </trkpt>
      <trkpt lat="46.06827" lon="6.33486">
        <ele>471.66</ele>
        <time>2020-04-04T14:59:02Z</time>
      </trkpt>
      <trkpt lat="46.06821" lon="6.33486">
        <ele>471.66</ele>
        <time>2020-04-04T14:59:03Z</time>
      </trkpt>
      <trkpt lat="46.06821" lon="6.33486">
        <ele>471.66</ele>
        <time>2020-04-04T14:59:04Z</time>
      </trkpt>
      <trkpt lat="46.06805" lon="6.33492">
        <ele>471.66</ele>
        <time>2020-04-04T14:59:05Z</time>
      </trkpt>
      <trkpt lat="46.06798" lon="6.33488">
        <ele>472.14</ele>
        <time>2020-04-04T14:59:06Z</time>
      </trkpt>
      <trkpt lat="46.06789" lon="6.33484">
        <ele>472.14</ele>
        <time>2020-04-04T14:59:07Z</time>
      </trkpt>
      <trkpt lat="46.0678" lon="6.33478">
        <ele>472.14</ele>
        <time>2020-04-04T14:59:08Z</time>
      </trkpt>
      <trkpt lat="46.0673" lon="6.33435">
        <ele>475.99</ele>
        <time>2020-04-04T14:59:15Z</time>
      </trkpt>
      <trkpt lat="46.06723" lon="6.3343">
        <ele>476.47</ele>
        <time>2020-04-04T14:59:16Z</time>
      </trkpt>
      <trkpt lat="46.06707" lon="6.33423">
        <ele>476.95</ele>
        <time>2020-04-04T14:59:18Z</time>
      </trkpt>
      <trkpt lat="46.06697" lon="6.33419">
        <ele>477.91</ele>
        <time>2020-04-04T14:59:19Z</time>
      </trkpt>
      <trkpt lat="46.06676" lon="6.33409">
        <ele>478.87</ele>
        <time>2020-04-04T14:59:21Z</time>
      </trkpt>
      <trkpt lat="46.06666" lon="6.33405">
        <ele>479.35</ele>
        <time>2020-04-04T14:59:22Z</time>
      </trkpt>
      <trkpt lat="46.06657" lon="6.33402">
        <ele>480.32</ele>
        <time>2020-04-04T14:59:23Z</time>
      </trkpt>
      <trkpt lat="46.0664" lon="6.33352">
        <ele>482.72</ele>
        <time>2020-04-04T14:59:27Z</time>
      </trkpt>
      <trkpt lat="46.06633" lon="6.3334">
        <ele>483.68</ele>
        <time>2020-04-04T14:59:28Z</time>
      </trkpt>
      <trkpt lat="46.06624" lon="6.3333">
        <ele>485.12</ele>
        <time>2020-04-04T14:59:29Z</time>
      </trkpt>
      <trkpt lat="46.06613" lon="6.33319">
        <ele>486.08</ele>
        <time>2020-04-04T14:59:30Z</time>
      </trkpt>
      <trkpt lat="46.06599" lon="6.33311">
        <ele>487.05</ele>
        <time>2020-04-04T14:59:31Z</time>
      </trkpt>
      <trkpt lat="46.06574" lon="6.33295">
        <ele>488.49</ele>
        <time>2020-04-04T14:59:33Z</time>
      </trkpt>
      <trkpt lat="46.06565" lon="6.33288">
        <ele>488.97</ele>
        <time>2020-04-04T14:59:34Z</time>
      </trkpt>
      <trkpt lat="46.06557" lon="6.3328">
        <ele>489.45</ele>
        <time>2020-04-04T14:59:35Z</time>
      </trkpt>
      <trkpt lat="46.06554" lon="6.3327">
        <ele>489.45</ele>
        <time>2020-04-04T14:59:36Z</time>
      </trkpt>
      <trkpt lat="46.06561" lon="6.33226">
        <ele>489.45</ele>
        <time>2020-04-04T14:59:38Z</time>
      </trkpt>
      <trkpt lat="46.0656" lon="6.3321">
        <ele>489.45</ele>
        <time>2020-04-04T14:59:39Z</time>
      </trkpt>
      <trkpt lat="46.06557" lon="6.33196">
        <ele>489.45</ele>
        <time>2020-04-04T14:59:40Z</time>
      </trkpt>
      <trkpt lat="46.06551" lon="6.33182">
        <ele>488.97</ele>
        <time>2020-04-04T14:59:41Z</time>
      </trkpt>
      <trkpt lat="46.06545" lon="6.33167">
        <ele>488.01</ele>
        <time>2020-04-04T14:59:42Z</time>
      </trkpt>
      <trkpt lat="46.06498" lon="6.33083">
        <ele>485.6</ele>
        <time>2020-04-04T14:59:47Z</time>
      </trkpt>
      <trkpt lat="46.06474" lon="6.3304">
        <ele>484.64</ele>
        <time>2020-04-04T14:59:49Z</time>
      </trkpt>
      <trkpt lat="46.06465" lon="6.3302">
        <ele>484.16</ele>
        <time>2020-04-04T14:59:50Z</time>
      </trkpt>
      <trkpt lat="46.06454" lon="6.32997">
        <ele>484.16</ele>
        <time>2020-04-04T14:59:51Z</time>
      </trkpt>
      <trkpt lat="46.06441" lon="6.3299">
        <ele>484.16</ele>
        <time>2020-04-04T14:59:52Z</time>
      </trkpt>
      <trkpt lat="46.06426" lon="6.32982">
        <ele>484.16</ele>
        <time>2020-04-04T14:59:53Z</time>
      </trkpt>
      <trkpt lat="46.06411" lon="6.32981">
        <ele>484.64</ele>
        <time>2020-04-04T14:59:54Z</time>
      </trkpt>
      <trkpt lat="46.06396" lon="6.32982">
        <ele>485.6</ele>
        <time>2020-04-04T14:59:55Z</time>
      </trkpt>
      <trkpt lat="46.06381" lon="6.32983">
        <ele>486.08</ele>
        <time>2020-04-04T14:59:56Z</time>
      </trkpt>
      <trkpt lat="46.06368" lon="6.32983">
        <ele>486.56</ele>
        <time>2020-04-04T14:59:57Z</time>
      </trkpt>
      <trkpt lat="46.06357" lon="6.32984">
        <ele>487.05</ele>
        <time>2020-04-04T14:59:58Z</time>
      </trkpt>
      <trkpt lat="46.06348" lon="6.3298">
        <ele>488.01</ele>
        <time>2020-04-04T14:59:59Z</time>
      </trkpt>
      <trkpt lat="46.06336" lon="6.32975">
        <ele>488.97</ele>
        <time>2020-04-04T15:00:00Z</time>
      </trkpt>
      <trkpt lat="46.06328" lon="6.32968">
        <ele>490.41</ele>
        <time>2020-04-04T15:00:02Z</time>
      </trkpt>
      <trkpt lat="46.06331" lon="6.32948">
        <ele>490.89</ele>
        <time>2020-04-04T15:00:03Z</time>
      </trkpt>
      <trkpt lat="46.06331" lon="6.32946">
        <ele>491.85</ele>
        <time>2020-04-04T15:00:04Z</time>
      </trkpt>
      <trkpt lat="46.0633" lon="6.32931">
        <ele>492.81</ele>
        <time>2020-04-04T15:00:05Z</time>
      </trkpt>
      <trkpt lat="46.06329" lon="6.32915">
        <ele>493.77</ele>
        <time>2020-04-04T15:00:06Z</time>
      </trkpt>
      <trkpt lat="46.06326" lon="6.32885">
        <ele>495.7</ele>
        <time>2020-04-04T15:00:08Z</time>
      </trkpt>
      <trkpt lat="46.06325" lon="6.3287">
        <ele>496.66</ele>
        <time>2020-04-04T15:00:09Z</time>
      </trkpt>
      <trkpt lat="46.06325" lon="6.3286">
        <ele>497.14</ele>
        <time>2020-04-04T15:00:10Z</time>
      </trkpt>
      <trkpt lat="46.06326" lon="6.32846">
        <ele>497.62</ele>
        <time>2020-04-04T15:00:11Z</time>
      </trkpt>
      <trkpt lat="46.06326" lon="6.32833">
        <ele>498.58</ele>
        <time>2020-04-04T15:00:12Z</time>
      </trkpt>
      <trkpt lat="46.06327" lon="6.32819">
        <ele>498.58</ele>
        <time>2020-04-04T15:00:13Z</time>
      </trkpt>
      <trkpt lat="46.06327" lon="6.32803">
        <ele>499.54</ele>
        <time>2020-04-04T15:00:14Z</time>
      </trkpt>
      <trkpt lat="46.06326" lon="6.32782">
        <ele>500.5</ele>
        <time>2020-04-04T15:00:15Z</time>
      </trkpt>
      <trkpt lat="46.06324" lon="6.32759">
        <ele>501.95</ele>
        <time>2020-04-04T15:00:16Z</time>
      </trkpt>
      <trkpt lat="46.06288" lon="6.32601">
        <ele>509.16</ele>
        <time>2020-04-04T15:00:21Z</time>
      </trkpt>
      <trkpt lat="46.06274" lon="6.32548">
        <ele>512.52</ele>
        <time>2020-04-04T15:00:23Z</time>
      </trkpt>
      <trkpt lat="46.06269" lon="6.32525">
        <ele>514.92</ele>
        <time>2020-04-04T15:00:24Z</time>
      </trkpt>
      <trkpt lat="46.06263" lon="6.32436">
        <ele>526.46</ele>
        <time>2020-04-04T15:00:30Z</time>
      </trkpt>
      <trkpt lat="46.06263" lon="6.32341">
        <ele>537.51</ele>
        <time>2020-04-04T15:00:39Z</time>
      </trkpt>
      <trkpt lat="46.06267" lon="6.3219">
        <ele>538.48</ele>
        <time>2020-04-04T15:00:47Z</time>
      </trkpt>
      <trkpt lat="46.06256" lon="6.3211">
        <ele>538.96</ele>
        <time>2020-04-04T15:00:51Z</time>
      </trkpt>
      <trkpt lat="46.06252" lon="6.32091">
        <ele>538.96</ele>
        <time>2020-04-04T15:00:52Z</time>
      </trkpt>
      <trkpt lat="46.06246" lon="6.32073">
        <ele>539.44</ele>
        <time>2020-04-04T15:00:53Z</time>
      </trkpt>
      <trkpt lat="46.0624" lon="6.32056">
        <ele>539.92</ele>
        <time>2020-04-04T15:00:54Z</time>
      </trkpt>
      <trkpt lat="46.06234" lon="6.32039">
        <ele>540.4</ele>
        <time>2020-04-04T15:00:55Z</time>
      </trkpt>
      <trkpt lat="46.06209" lon="6.31978">
        <ele>539.92</ele>
        <time>2020-04-04T15:00:59Z</time>
      </trkpt>
      <trkpt lat="46.06205" lon="6.31968">
        <ele>540.4</ele>
        <time>2020-04-04T15:01:00Z</time>
      </trkpt>
      <trkpt lat="46.0617" lon="6.31896">
        <ele>544.24</ele>
        <time>2020-04-04T15:01:07Z</time>
      </trkpt>
      <trkpt lat="46.06145" lon="6.31847">
        <ele>548.09</ele>
        <time>2020-04-04T15:01:10Z</time>
      </trkpt>
      <trkpt lat="46.06135" lon="6.31836">
        <ele>549.53</ele>
        <time>2020-04-04T15:01:11Z</time>
      </trkpt>
      <trkpt lat="46.06126" lon="6.31825">
        <ele>550.97</ele>
        <time>2020-04-04T15:01:12Z</time>
      </trkpt>
      <trkpt lat="46.06109" lon="6.31806">
        <ele>553.86</ele>
        <time>2020-04-04T15:01:14Z</time>
      </trkpt>
      <trkpt lat="46.06103" lon="6.31799">
        <ele>554.82</ele>
        <time>2020-04-04T15:01:15Z</time>
      </trkpt>
      <trkpt lat="46.06098" lon="6.31794">
        <ele>556.26</ele>
        <time>2020-04-04T15:01:16Z</time>
      </trkpt>
      <trkpt lat="46.06094" lon="6.31788">
        <ele>557.7</ele>
        <time>2020-04-04T15:01:17Z</time>
      </trkpt>
      <trkpt lat="46.0609" lon="6.31784">
        <ele>558.66</ele>
        <time>2020-04-04T15:01:18Z</time>
      </trkpt>
      <trkpt lat="46.06087" lon="6.31773">
        <ele>559.62</ele>
        <time>2020-04-04T15:01:19Z</time>
      </trkpt>
      <trkpt lat="46.06082" lon="6.31728">
        <ele>561.07</ele>
        <time>2020-04-04T15:01:21Z</time>
      </trkpt>
      <trkpt lat="46.06039" lon="6.31637">
        <ele>561.07</ele>
        <time>2020-04-04T15:01:27Z</time>
      </trkpt>
      <trkpt lat="46.06038" lon="6.31608">
        <ele>560.59</ele>
        <time>2020-04-04T15:01:28Z</time>
      </trkpt>
      <trkpt lat="46.06044" lon="6.31595">
        <ele>560.11</ele>
        <time>2020-04-04T15:01:29Z</time>
      </trkpt>
      <trkpt lat="46.0605" lon="6.31582">
        <ele>559.62</ele>
        <time>2020-04-04T15:01:30Z</time>
      </trkpt>
      <trkpt lat="46.06059" lon="6.31574">
        <ele>558.66</ele>
        <time>2020-04-04T15:01:32Z</time>
      </trkpt>
      <trkpt lat="46.06078" lon="6.31567">
        <ele>558.66</ele>
        <time>2020-04-04T15:01:33Z</time>
      </trkpt>
      <trkpt lat="46.06088" lon="6.31573">
        <ele>558.66</ele>
        <time>2020-04-04T15:01:34Z</time>
      </trkpt>
      <trkpt lat="46.061" lon="6.31582">
        <ele>558.18</ele>
        <time>2020-04-04T15:01:35Z</time>
      </trkpt>
      <trkpt lat="46.06179" lon="6.31635">
        <ele>558.18</ele>
        <time>2020-04-04T15:01:41Z</time>
      </trkpt>
      <trkpt lat="46.06189" lon="6.3164">
        <ele>558.18</ele>
        <time>2020-04-04T15:01:42Z</time>
      </trkpt>
      <trkpt lat="46.06197" lon="6.31639">
        <ele>557.7</ele>
        <time>2020-04-04T15:01:43Z</time>
      </trkpt>
      <trkpt lat="46.06207" lon="6.31636">
        <ele>557.7</ele>
        <time>2020-04-04T15:01:44Z</time>
      </trkpt>
      <trkpt lat="46.06217" lon="6.31633">
        <ele>557.22</ele>
        <time>2020-04-04T15:01:45Z</time>
      </trkpt>
      <trkpt lat="46.06256" lon="6.31613">
        <ele>555.78</ele>
        <time>2020-04-04T15:01:49Z</time>
      </trkpt>
      <trkpt lat="46.06265" lon="6.31605">
        <ele>555.3</ele>
        <time>2020-04-04T15:01:51Z</time>
      </trkpt>
      <trkpt lat="46.06345" lon="6.3149">
        <ele>554.82</ele>
        <time>2020-04-04T15:02:01Z</time>
      </trkpt>
      <trkpt lat="46.06357" lon="6.31468">
        <ele>555.78</ele>
        <time>2020-04-04T15:02:04Z</time>
      </trkpt>
      <trkpt lat="46.0636" lon="6.31459">
        <ele>556.26</ele>
        <time>2020-04-04T15:02:05Z</time>
      </trkpt>
      <trkpt lat="46.06365" lon="6.31448">
        <ele>556.26</ele>
        <time>2020-04-04T15:02:06Z</time>
      </trkpt>
      <trkpt lat="46.06369" lon="6.31435">
        <ele>555.78</ele>
        <time>2020-04-04T15:02:07Z</time>
      </trkpt>
      <trkpt lat="46.06372" lon="6.31422">
        <ele>555.3</ele>
        <time>2020-04-04T15:02:09Z</time>
      </trkpt>
      <trkpt lat="46.06398" lon="6.31311">
        <ele>553.86</ele>
        <time>2020-04-04T15:02:16Z</time>
      </trkpt>
      <trkpt lat="46.0645" lon="6.31135">
        <ele>554.82</ele>
        <time>2020-04-04T15:02:27Z</time>
      </trkpt>
      <trkpt lat="46.06458" lon="6.31112">
        <ele>556.26</ele>
        <time>2020-04-04T15:02:30Z</time>
      </trkpt>
      <trkpt lat="46.0646" lon="6.31107">
        <ele>556.74</ele>
        <time>2020-04-04T15:02:31Z</time>
      </trkpt>
      <trkpt lat="46.06461" lon="6.311">
        <ele>556.74</ele>
        <time>2020-04-04T15:02:32Z</time>
      </trkpt>
      <trkpt lat="46.06466" lon="6.3109">
        <ele>556.74</ele>
        <time>2020-04-04T15:02:33Z</time>
      </trkpt>
      <trkpt lat="46.06469" lon="6.31087">
        <ele>557.22</ele>
        <time>2020-04-04T15:02:34Z</time>
      </trkpt>
      <trkpt lat="46.06477" lon="6.31088">
        <ele>557.7</ele>
        <time>2020-04-04T15:02:36Z</time>
      </trkpt>
      <trkpt lat="46.06494" lon="6.31088">
        <ele>558.18</ele>
        <time>2020-04-04T15:02:37Z</time>
      </trkpt>
      <trkpt lat="46.06506" lon="6.31088">
        <ele>558.18</ele>
        <time>2020-04-04T15:02:38Z</time>
      </trkpt>
      <trkpt lat="46.06565" lon="6.3109">
        <ele>555.78</ele>
        <time>2020-04-04T15:02:44Z</time>
      </trkpt>
      <trkpt lat="46.06586" lon="6.31095">
        <ele>555.3</ele>
        <time>2020-04-04T15:02:46Z</time>
      </trkpt>
      <trkpt lat="46.06589" lon="6.31096">
        <ele>554.82</ele>
        <time>2020-04-04T15:02:47Z</time>
      </trkpt>
      <trkpt lat="46.06592" lon="6.31097">
        <ele>554.82</ele>
        <time>2020-04-04T15:02:49Z</time>
      </trkpt>
      <trkpt lat="46.06599" lon="6.31087">
        <ele>554.34</ele>
        <time>2020-04-04T15:02:50Z</time>
      </trkpt>
      <trkpt lat="46.066" lon="6.31079">
        <ele>554.34</ele>
        <time>2020-04-04T15:02:51Z</time>
      </trkpt>
      <trkpt lat="46.06602" lon="6.31069">
        <ele>553.86</ele>
        <time>2020-04-04T15:02:52Z</time>
      </trkpt>
      <trkpt lat="46.0662" lon="6.30965">
        <ele>553.86</ele>
        <time>2020-04-04T15:02:58Z</time>
      </trkpt>
      <trkpt lat="46.06626" lon="6.30934">
        <ele>554.34</ele>
        <time>2020-04-04T15:03:01Z</time>
      </trkpt>
      <trkpt lat="46.06632" lon="6.30914">
        <ele>554.34</ele>
        <time>2020-04-04T15:03:04Z</time>
      </trkpt>
      <trkpt lat="46.06637" lon="6.30903">
        <ele>554.82</ele>
        <time>2020-04-04T15:03:05Z</time>
      </trkpt>
      <trkpt lat="46.0664" lon="6.30907">
        <ele>555.3</ele>
        <time>2020-04-04T15:03:07Z</time>
      </trkpt>
      <trkpt lat="46.06644" lon="6.30909">
        <ele>555.78</ele>
        <time>2020-04-04T15:03:08Z</time>
      </trkpt>
      <trkpt lat="46.06659" lon="6.30909">
        <ele>556.26</ele>
        <time>2020-04-04T15:03:09Z</time>
      </trkpt>
      <trkpt lat="46.0668" lon="6.30904">
        <ele>557.22</ele>
        <time>2020-04-04T15:03:12Z</time>
      </trkpt>
      <trkpt lat="46.06697" lon="6.30893">
        <ele>557.7</ele>
        <time>2020-04-04T15:03:13Z</time>
      </trkpt>
      <trkpt lat="46.06704" lon="6.30881">
        <ele>558.18</ele>
        <time>2020-04-04T15:03:14Z</time>
      </trkpt>
      <trkpt lat="46.06748" lon="6.30813">
        <ele>561.07</ele>
        <time>2020-04-04T15:03:21Z</time>
      </trkpt>
      <trkpt lat="46.0675" lon="6.30811">
        <ele>561.55</ele>
        <time>2020-04-04T15:03:22Z</time>
      </trkpt>
      <trkpt lat="46.0675" lon="6.30811">
        <ele>561.55</ele>
        <time>2020-04-04T15:03:23Z</time>
      </trkpt>
      <trkpt lat="46.0675" lon="6.30811">
        <ele>562.03</ele>
        <time>2020-04-04T15:03:39Z</time>
      </trkpt>
      <trkpt lat="46.0675" lon="6.30811">
        <ele>562.03</ele>
        <time>2020-04-04T15:03:55Z</time>
      </trkpt>
    </trkseg>
  </trk>
</gpx>